sensor_id;sensor_type;location;lat;lon;timestamp;P1;durP1;ratioP1;P2;durP2;ratioP2
10701;SDS011;5402;50.004;8.246;2022-09-30T00:02:15;5.80;;;4.37;;
10701;SDS011;5402;50.004;8.246;2022-09-30T00:04:42;7.40;;;4.27;;
10701;SDS011;5402;50.004;8.246;2022-09-30T00:07:08;6.97;;;3.90;;
10701;SDS011;5402;50.004;8.246;2022-09-30T00:09:35;4.77;;;3.50;;
10701;SDS011;5402;50.004;8.246;2022-09-30T00:12:02;5.47;;;4.20;;
10701;SDS011;5402;50.004;8.246;2022-09-30T00:14:29;5.67;;;3.87;;
10701;SDS011;5402;50.004;8.246;2022-09-30T00:16:56;4.77;;;3.97;;
10701;SDS011;5402;50.004;8.246;2022-09-30T00:19:25;5.97;;;3.80;;
10701;SDS011;5402;50.004;8.246;2022-09-30T00:21:51;5.23;;;3.93;;
10701;SDS011;5402;50.004;8.246;2022-09-30T00:24:18;4.53;;;3.77;;
10701;SDS011;5402;50.004;8.246;2022-09-30T00:26:45;5.70;;;4.00;;
10701;SDS011;5402;50.004;8.246;2022-09-30T00:29:12;5.63;;;3.70;;
10701;SDS011;5402;50.004;8.246;2022-09-30T00:31:38;4.63;;;3.80;;
10701;SDS011;5402;50.004;8.246;2022-09-30T00:34:05;6.40;;;3.73;;
10701;SDS011;5402;50.004;8.246;2022-09-30T00:36:37;5.07;;;3.73;;
10701;SDS011;5402;50.004;8.246;2022-09-30T00:39:07;6.93;;;3.73;;
10701;SDS011;5402;50.004;8.246;2022-09-30T00:41:36;4.17;;;3.40;;
10701;SDS011;5402;50.004;8.246;2022-09-30T00:47:03;5.30;;;3.47;;
10701;SDS011;5402;50.004;8.246;2022-09-30T00:49:31;4.20;;;3.60;;
10701;SDS011;5402;50.004;8.246;2022-09-30T00:52:00;4.17;;;3.47;;
10701;SDS011;5402;50.004;8.246;2022-09-30T00:54:28;5.10;;;3.93;;
10701;SDS011;5402;50.004;8.246;2022-09-30T00:56:58;4.93;;;3.63;;
10701;SDS011;5402;50.004;8.246;2022-09-30T00:59:28;3.87;;;3.30;;
10701;SDS011;5402;50.004;8.246;2022-09-30T01:01:58;4.03;;;3.60;;
10701;SDS011;5402;50.004;8.246;2022-09-30T01:04:26;4.23;;;3.83;;
10701;SDS011;5402;50.004;8.246;2022-09-30T01:06:58;5.20;;;3.80;;
10701;SDS011;5402;50.004;8.246;2022-09-30T01:09:26;4.53;;;3.17;;
10701;SDS011;5402;50.004;8.246;2022-09-30T01:11:54;5.17;;;3.60;;
10701;SDS011;5402;50.004;8.246;2022-09-30T01:14:22;5.23;;;3.77;;
10701;SDS011;5402;50.004;8.246;2022-09-30T01:16:54;4.80;;;3.60;;
10701;SDS011;5402;50.004;8.246;2022-09-30T01:19:38;5.93;;;3.60;;
10701;SDS011;5402;50.004;8.246;2022-09-30T01:22:34;4.27;;;3.47;;
10701;SDS011;5402;50.004;8.246;2022-09-30T01:25:12;5.13;;;3.27;;
10701;SDS011;5402;50.004;8.246;2022-09-30T01:31:11;6.83;;;3.43;;
10701;SDS011;5402;50.004;8.246;2022-09-30T01:33:48;4.10;;;3.27;;
10701;SDS011;5402;50.004;8.246;2022-09-30T01:39:13;4.80;;;3.33;;
10701;SDS011;5402;50.004;8.246;2022-09-30T01:41:52;4.00;;;3.07;;
10701;SDS011;5402;50.004;8.246;2022-09-30T01:44:30;8.20;;;3.53;;
10701;SDS011;5402;50.004;8.246;2022-09-30T01:47:06;4.83;;;3.73;;
10701;SDS011;5402;50.004;8.246;2022-09-30T01:49:38;6.53;;;3.30;;
10701;SDS011;5402;50.004;8.246;2022-09-30T01:52:10;3.40;;;3.10;;
10701;SDS011;5402;50.004;8.246;2022-09-30T01:54:41;4.20;;;3.03;;
10701;SDS011;5402;50.004;8.246;2022-09-30T01:57:11;6.03;;;3.60;;
10701;SDS011;5402;50.004;8.246;2022-09-30T01:59:44;5.17;;;3.67;;
10701;SDS011;5402;50.004;8.246;2022-09-30T02:02:17;4.30;;;3.70;;
10701;SDS011;5402;50.004;8.246;2022-09-30T02:04:47;4.77;;;3.30;;
10701;SDS011;5402;50.004;8.246;2022-09-30T02:07:21;4.30;;;3.37;;
10701;SDS011;5402;50.004;8.246;2022-09-30T02:09:52;4.93;;;2.97;;
10701;SDS011;5402;50.004;8.246;2022-09-30T02:12:24;4.47;;;3.03;;
10701;SDS011;5402;50.004;8.246;2022-09-30T02:14:55;4.03;;;3.20;;
10701;SDS011;5402;50.004;8.246;2022-09-30T02:17:28;4.40;;;3.53;;
10701;SDS011;5402;50.004;8.246;2022-09-30T02:19:59;4.07;;;3.20;;
10701;SDS011;5402;50.004;8.246;2022-09-30T02:22:30;4.67;;;3.33;;
10701;SDS011;5402;50.004;8.246;2022-09-30T02:25:05;3.73;;;3.03;;
10701;SDS011;5402;50.004;8.246;2022-09-30T02:27:34;4.83;;;3.50;;
10701;SDS011;5402;50.004;8.246;2022-09-30T02:30:06;5.60;;;3.07;;
10701;SDS011;5402;50.004;8.246;2022-09-30T02:32:38;5.17;;;3.10;;
10701;SDS011;5402;50.004;8.246;2022-09-30T02:35:10;5.03;;;3.47;;
10701;SDS011;5402;50.004;8.246;2022-09-30T02:37:43;4.40;;;3.40;;
10701;SDS011;5402;50.004;8.246;2022-09-30T02:40:15;4.27;;;3.53;;
10701;SDS011;5402;50.004;8.246;2022-09-30T02:42:47;4.07;;;3.10;;
10701;SDS011;5402;50.004;8.246;2022-09-30T02:45:15;3.80;;;3.10;;
10701;SDS011;5402;50.004;8.246;2022-09-30T02:47:49;3.67;;;3.20;;
10701;SDS011;5402;50.004;8.246;2022-09-30T02:50:28;4.00;;;3.23;;
10701;SDS011;5402;50.004;8.246;2022-09-30T02:53:02;3.60;;;3.03;;
10701;SDS011;5402;50.004;8.246;2022-09-30T02:55:40;3.67;;;3.27;;
10701;SDS011;5402;50.004;8.246;2022-09-30T02:58:25;4.40;;;3.50;;
10701;SDS011;5402;50.004;8.246;2022-09-30T03:00:54;4.73;;;3.50;;
10701;SDS011;5402;50.004;8.246;2022-09-30T03:03:24;4.00;;;3.00;;
10701;SDS011;5402;50.004;8.246;2022-09-30T03:05:54;4.47;;;3.33;;
10701;SDS011;5402;50.004;8.246;2022-09-30T03:08:21;3.63;;;3.07;;
10701;SDS011;5402;50.004;8.246;2022-09-30T03:10:48;3.97;;;3.03;;
10701;SDS011;5402;50.004;8.246;2022-09-30T03:13:23;4.03;;;3.17;;
10701;SDS011;5402;50.004;8.246;2022-09-30T03:16:04;8.23;;;3.57;;
10701;SDS011;5402;50.004;8.246;2022-09-30T03:18:47;3.53;;;2.97;;
10701;SDS011;5402;50.004;8.246;2022-09-30T03:21:30;3.73;;;3.00;;
10701;SDS011;5402;50.004;8.246;2022-09-30T03:24:14;4.53;;;3.10;;
10701;SDS011;5402;50.004;8.246;2022-09-30T03:27:07;5.13;;;3.30;;
10701;SDS011;5402;50.004;8.246;2022-09-30T03:29:41;4.53;;;3.30;;
10701;SDS011;5402;50.004;8.246;2022-09-30T03:32:18;5.77;;;3.20;;
10701;SDS011;5402;50.004;8.246;2022-09-30T03:35:03;4.97;;;3.30;;
10701;SDS011;5402;50.004;8.246;2022-09-30T03:37:43;5.60;;;3.70;;
10701;SDS011;5402;50.004;8.246;2022-09-30T03:40:20;6.23;;;3.47;;
10701;SDS011;5402;50.004;8.246;2022-09-30T03:42:55;7.17;;;3.80;;
10701;SDS011;5402;50.004;8.246;2022-09-30T03:45:28;8.13;;;4.40;;
10701;SDS011;5402;50.004;8.246;2022-09-30T03:48:00;6.40;;;4.10;;
10701;SDS011;5402;50.004;8.246;2022-09-30T03:50:32;5.27;;;3.43;;
10701;SDS011;5402;50.004;8.246;2022-09-30T03:53:00;3.50;;;3.20;;
10701;SDS011;5402;50.004;8.246;2022-09-30T03:55:28;5.07;;;3.60;;
10701;SDS011;5402;50.004;8.246;2022-09-30T03:57:57;4.30;;;3.43;;
10701;SDS011;5402;50.004;8.246;2022-09-30T04:00:24;3.70;;;3.30;;
10701;SDS011;5402;50.004;8.246;2022-09-30T04:02:50;4.33;;;3.27;;
10701;SDS011;5402;50.004;8.246;2022-09-30T04:05:17;4.53;;;3.40;;
10701;SDS011;5402;50.004;8.246;2022-09-30T04:07:46;3.77;;;3.00;;
10701;SDS011;5402;50.004;8.246;2022-09-30T04:10:12;4.83;;;2.97;;
10701;SDS011;5402;50.004;8.246;2022-09-30T04:12:39;3.50;;;3.20;;
10701;SDS011;5402;50.004;8.246;2022-09-30T04:15:06;4.63;;;3.50;;
10701;SDS011;5402;50.004;8.246;2022-09-30T04:17:34;5.80;;;3.20;;
10701;SDS011;5402;50.004;8.246;2022-09-30T04:20:00;11.70;;;4.57;;
10701;SDS011;5402;50.004;8.246;2022-09-30T04:22:27;4.73;;;3.70;;
10701;SDS011;5402;50.004;8.246;2022-09-30T04:24:55;5.20;;;3.47;;
10701;SDS011;5402;50.004;8.246;2022-09-30T04:27:22;4.77;;;3.33;;
10701;SDS011;5402;50.004;8.246;2022-09-30T04:29:49;4.13;;;3.73;;
10701;SDS011;5402;50.004;8.246;2022-09-30T04:32:16;4.50;;;3.30;;
10701;SDS011;5402;50.004;8.246;2022-09-30T04:34:43;4.60;;;3.80;;
10701;SDS011;5402;50.004;8.246;2022-09-30T04:37:09;5.40;;;3.30;;
10701;SDS011;5402;50.004;8.246;2022-09-30T04:39:36;5.27;;;3.77;;
10701;SDS011;5402;50.004;8.246;2022-09-30T04:42:05;5.70;;;3.70;;
10701;SDS011;5402;50.004;8.246;2022-09-30T04:44:31;3.50;;;3.20;;
10701;SDS011;5402;50.004;8.246;2022-09-30T04:46:59;4.20;;;3.67;;
10701;SDS011;5402;50.004;8.246;2022-09-30T04:49:26;6.13;;;3.57;;
10701;SDS011;5402;50.004;8.246;2022-09-30T04:51:52;6.70;;;3.63;;
10701;SDS011;5402;50.004;8.246;2022-09-30T04:54:19;4.67;;;3.47;;
10701;SDS011;5402;50.004;8.246;2022-09-30T04:56:46;5.37;;;3.70;;
10701;SDS011;5402;50.004;8.246;2022-09-30T04:59:14;4.87;;;3.50;;
10701;SDS011;5402;50.004;8.246;2022-09-30T05:01:41;6.17;;;3.67;;
10701;SDS011;5402;50.004;8.246;2022-09-30T05:04:08;3.97;;;3.50;;
10701;SDS011;5402;50.004;8.246;2022-09-30T05:06:36;5.13;;;3.70;;
10701;SDS011;5402;50.004;8.246;2022-09-30T05:09:03;4.80;;;3.47;;
10701;SDS011;5402;50.004;8.246;2022-09-30T05:11:30;6.53;;;4.27;;
10701;SDS011;5402;50.004;8.246;2022-09-30T05:13:58;4.17;;;3.43;;
10701;SDS011;5402;50.004;8.246;2022-09-30T05:16:26;4.93;;;4.13;;
10701;SDS011;5402;50.004;8.246;2022-09-30T05:18:53;12.40;;;4.40;;
10701;SDS011;5402;50.004;8.246;2022-09-30T05:21:20;11.80;;;4.87;;
10701;SDS011;5402;50.004;8.246;2022-09-30T05:23:47;14.70;;;5.47;;
10701;SDS011;5402;50.004;8.246;2022-09-30T05:26:14;12.70;;;4.83;;
10701;SDS011;5402;50.004;8.246;2022-09-30T05:28:41;17.93;;;5.07;;
10701;SDS011;5402;50.004;8.246;2022-09-30T05:31:08;18.50;;;5.57;;
10701;SDS011;5402;50.004;8.246;2022-09-30T05:33:37;12.30;;;4.50;;
10701;SDS011;5402;50.004;8.246;2022-09-30T05:36:05;10.33;;;4.67;;
10701;SDS011;5402;50.004;8.246;2022-09-30T05:38:33;21.63;;;5.23;;
10701;SDS011;5402;50.004;8.246;2022-09-30T05:41:04;9.73;;;5.20;;
10701;SDS011;5402;50.004;8.246;2022-09-30T05:43:33;8.50;;;5.13;;
10701;SDS011;5402;50.004;8.246;2022-09-30T05:45:59;5.77;;;4.27;;
10701;SDS011;5402;50.004;8.246;2022-09-30T05:48:26;8.10;;;4.83;;
10701;SDS011;5402;50.004;8.246;2022-09-30T05:50:54;6.37;;;4.10;;
10701;SDS011;5402;50.004;8.246;2022-09-30T05:53:24;6.50;;;4.13;;
10701;SDS011;5402;50.004;8.246;2022-09-30T05:55:52;4.90;;;3.77;;
10701;SDS011;5402;50.004;8.246;2022-09-30T05:58:20;5.90;;;4.20;;
10701;SDS011;5402;50.004;8.246;2022-09-30T06:00:47;6.03;;;3.90;;
10701;SDS011;5402;50.004;8.246;2022-09-30T06:03:14;5.97;;;3.80;;
10701;SDS011;5402;50.004;8.246;2022-09-30T06:05:42;5.23;;;4.10;;
10701;SDS011;5402;50.004;8.246;2022-09-30T06:08:11;4.90;;;4.00;;
10701;SDS011;5402;50.004;8.246;2022-09-30T06:10:39;5.10;;;4.20;;
10701;SDS011;5402;50.004;8.246;2022-09-30T06:13:06;7.13;;;4.27;;
10701;SDS011;5402;50.004;8.246;2022-09-30T06:15:33;5.13;;;3.70;;
10701;SDS011;5402;50.004;8.246;2022-09-30T06:18:02;5.73;;;4.20;;
10701;SDS011;5402;50.004;8.246;2022-09-30T06:20:29;7.73;;;3.87;;
10701;SDS011;5402;50.004;8.246;2022-09-30T06:22:57;5.07;;;4.03;;
10701;SDS011;5402;50.004;8.246;2022-09-30T06:25:25;5.03;;;3.80;;
10701;SDS011;5402;50.004;8.246;2022-09-30T06:27:53;5.30;;;3.50;;
10701;SDS011;5402;50.004;8.246;2022-09-30T06:30:20;7.23;;;3.90;;
10701;SDS011;5402;50.004;8.246;2022-09-30T06:32:46;5.23;;;4.33;;
10701;SDS011;5402;50.004;8.246;2022-09-30T06:35:13;5.10;;;4.00;;
10701;SDS011;5402;50.004;8.246;2022-09-30T06:37:40;8.43;;;3.87;;
10701;SDS011;5402;50.004;8.246;2022-09-30T06:40:10;5.23;;;4.03;;
10701;SDS011;5402;50.004;8.246;2022-09-30T06:42:38;5.23;;;4.07;;
10701;SDS011;5402;50.004;8.246;2022-09-30T06:45:06;5.47;;;4.10;;
10701;SDS011;5402;50.004;8.246;2022-09-30T06:47:34;5.97;;;4.47;;
10701;SDS011;5402;50.004;8.246;2022-09-30T06:50:01;5.40;;;4.27;;
10701;SDS011;5402;50.004;8.246;2022-09-30T06:52:27;4.93;;;3.87;;
10701;SDS011;5402;50.004;8.246;2022-09-30T06:54:54;6.87;;;3.90;;
10701;SDS011;5402;50.004;8.246;2022-09-30T06:57:21;6.50;;;3.77;;
10701;SDS011;5402;50.004;8.246;2022-09-30T06:59:50;4.47;;;3.63;;
10701;SDS011;5402;50.004;8.246;2022-09-30T07:02:18;4.40;;;3.93;;
10701;SDS011;5402;50.004;8.246;2022-09-30T07:04:45;5.97;;;4.00;;
10701;SDS011;5402;50.004;8.246;2022-09-30T07:07:12;5.93;;;3.77;;
10701;SDS011;5402;50.004;8.246;2022-09-30T07:09:39;5.50;;;3.90;;
10701;SDS011;5402;50.004;8.246;2022-09-30T07:12:07;6.87;;;4.27;;
10701;SDS011;5402;50.004;8.246;2022-09-30T07:14:34;6.10;;;4.03;;
10701;SDS011;5402;50.004;8.246;2022-09-30T07:17:02;5.47;;;3.90;;
10701;SDS011;5402;50.004;8.246;2022-09-30T07:19:29;4.50;;;4.00;;
10701;SDS011;5402;50.004;8.246;2022-09-30T07:21:58;6.00;;;3.57;;
10701;SDS011;5402;50.004;8.246;2022-09-30T07:24:45;5.33;;;3.50;;
10701;SDS011;5402;50.004;8.246;2022-09-30T07:27:12;4.63;;;3.70;;
10701;SDS011;5402;50.004;8.246;2022-09-30T07:29:39;5.93;;;4.00;;
10701;SDS011;5402;50.004;8.246;2022-09-30T07:32:08;5.83;;;3.90;;
10701;SDS011;5402;50.004;8.246;2022-09-30T07:34:35;4.53;;;3.70;;
10701;SDS011;5402;50.004;8.246;2022-09-30T07:37:03;5.10;;;3.90;;
10701;SDS011;5402;50.004;8.246;2022-09-30T07:39:29;4.87;;;3.93;;
10701;SDS011;5402;50.004;8.246;2022-09-30T07:41:56;5.93;;;4.20;;
10701;SDS011;5402;50.004;8.246;2022-09-30T07:44:23;5.27;;;4.20;;
10701;SDS011;5402;50.004;8.246;2022-09-30T07:46:50;6.53;;;4.50;;
10701;SDS011;5402;50.004;8.246;2022-09-30T07:49:18;5.30;;;4.47;;
10701;SDS011;5402;50.004;8.246;2022-09-30T07:51:49;6.20;;;4.30;;
10701;SDS011;5402;50.004;8.246;2022-09-30T07:54:18;6.87;;;4.13;;
10701;SDS011;5402;50.004;8.246;2022-09-30T07:56:47;4.13;;;3.70;;
10701;SDS011;5402;50.004;8.246;2022-09-30T07:59:15;5.13;;;4.20;;
10701;SDS011;5402;50.004;8.246;2022-09-30T08:01:42;5.27;;;3.80;;
10701;SDS011;5402;50.004;8.246;2022-09-30T08:04:10;5.90;;;3.70;;
10701;SDS011;5402;50.004;8.246;2022-09-30T08:06:39;4.70;;;4.17;;
10701;SDS011;5402;50.004;8.246;2022-09-30T08:09:09;4.60;;;4.10;;
10701;SDS011;5402;50.004;8.246;2022-09-30T08:11:36;5.53;;;3.90;;
10701;SDS011;5402;50.004;8.246;2022-09-30T08:14:03;7.67;;;4.73;;
10701;SDS011;5402;50.004;8.246;2022-09-30T08:16:31;5.97;;;4.80;;
10701;SDS011;5402;50.004;8.246;2022-09-30T08:18:59;6.47;;;5.23;;
10701;SDS011;5402;50.004;8.246;2022-09-30T08:21:27;7.13;;;4.90;;
10701;SDS011;5402;50.004;8.246;2022-09-30T08:23:55;7.27;;;4.80;;
10701;SDS011;5402;50.004;8.246;2022-09-30T08:26:23;6.30;;;4.80;;
10701;SDS011;5402;50.004;8.246;2022-09-30T08:28:50;8.23;;;5.33;;
10701;SDS011;5402;50.004;8.246;2022-09-30T08:31:17;8.53;;;5.43;;
10701;SDS011;5402;50.004;8.246;2022-09-30T08:33:45;8.93;;;5.97;;
10701;SDS011;5402;50.004;8.246;2022-09-30T08:36:13;12.33;;;6.50;;
10701;SDS011;5402;50.004;8.246;2022-09-30T08:38:41;8.23;;;5.90;;
10701;SDS011;5402;50.004;8.246;2022-09-30T08:41:16;9.27;;;6.77;;
10701;SDS011;5402;50.004;8.246;2022-09-30T08:43:57;9.47;;;6.50;;
10701;SDS011;5402;50.004;8.246;2022-09-30T08:46:36;8.77;;;6.90;;
10701;SDS011;5402;50.004;8.246;2022-09-30T08:49:12;11.57;;;7.00;;
10701;SDS011;5402;50.004;8.246;2022-09-30T08:51:53;9.23;;;6.40;;
10701;SDS011;5402;50.004;8.246;2022-09-30T08:54:23;11.23;;;7.10;;
10701;SDS011;5402;50.004;8.246;2022-09-30T08:56:55;10.70;;;7.30;;
10701;SDS011;5402;50.004;8.246;2022-09-30T08:59:24;9.20;;;6.97;;
10701;SDS011;5402;50.004;8.246;2022-09-30T09:01:58;10.27;;;7.50;;
10701;SDS011;5402;50.004;8.246;2022-09-30T09:04:29;10.97;;;7.50;;
10701;SDS011;5402;50.004;8.246;2022-09-30T09:06:57;8.90;;;7.37;;
10701;SDS011;5402;50.004;8.246;2022-09-30T09:09:36;10.27;;;7.20;;
10701;SDS011;5402;50.004;8.246;2022-09-30T09:12:27;10.73;;;7.13;;
10701;SDS011;5402;50.004;8.246;2022-09-30T09:15:09;12.37;;;7.43;;
10701;SDS011;5402;50.004;8.246;2022-09-30T09:17:52;11.93;;;7.57;;
10701;SDS011;5402;50.004;8.246;2022-09-30T09:20:29;10.80;;;6.90;;
10701;SDS011;5402;50.004;8.246;2022-09-30T09:22:59;12.40;;;6.73;;
10701;SDS011;5402;50.004;8.246;2022-09-30T09:25:28;10.63;;;7.00;;
10701;SDS011;5402;50.004;8.246;2022-09-30T09:27:57;8.87;;;6.77;;
10701;SDS011;5402;50.004;8.246;2022-09-30T09:30:26;8.73;;;7.30;;
10701;SDS011;5402;50.004;8.246;2022-09-30T09:32:59;13.37;;;7.90;;
10701;SDS011;5402;50.004;8.246;2022-09-30T09:35:34;10.23;;;6.63;;
10701;SDS011;5402;50.004;8.246;2022-09-30T09:38:09;10.47;;;7.10;;
10701;SDS011;5402;50.004;8.246;2022-09-30T09:40:52;10.07;;;6.50;;
10701;SDS011;5402;50.004;8.246;2022-09-30T09:43:34;12.73;;;6.43;;
10701;SDS011;5402;50.004;8.246;2022-09-30T09:46:10;11.90;;;7.03;;
10701;SDS011;5402;50.004;8.246;2022-09-30T09:48:43;8.43;;;6.53;;
10701;SDS011;5402;50.004;8.246;2022-09-30T09:51:11;10.17;;;6.97;;
10701;SDS011;5402;50.004;8.246;2022-09-30T09:53:47;11.50;;;7.53;;
10701;SDS011;5402;50.004;8.246;2022-09-30T09:56:16;10.73;;;7.30;;
10701;SDS011;5402;50.004;8.246;2022-09-30T09:59:08;8.63;;;6.97;;
10701;SDS011;5402;50.004;8.246;2022-09-30T10:01:38;9.93;;;6.77;;
10701;SDS011;5402;50.004;8.246;2022-09-30T10:04:11;10.00;;;7.00;;
10701;SDS011;5402;50.004;8.246;2022-09-30T10:06:42;11.47;;;7.53;;
10701;SDS011;5402;50.004;8.246;2022-09-30T10:09:22;8.27;;;6.63;;
10701;SDS011;5402;50.004;8.246;2022-09-30T10:14:56;10.13;;;6.83;;
10701;SDS011;5402;50.004;8.246;2022-09-30T10:17:25;10.17;;;6.80;;
10701;SDS011;5402;50.004;8.246;2022-09-30T10:19:56;10.00;;;6.70;;
10701;SDS011;5402;50.004;8.246;2022-09-30T10:22:26;8.67;;;5.03;;
10701;SDS011;5402;50.004;8.246;2022-09-30T10:25:07;9.70;;;6.07;;
10701;SDS011;5402;50.004;8.246;2022-09-30T10:27:46;7.00;;;5.13;;
10701;SDS011;5402;50.004;8.246;2022-09-30T10:30:30;10.43;;;5.27;;
10701;SDS011;5402;50.004;8.246;2022-09-30T10:32:59;6.67;;;5.20;;
10701;SDS011;5402;50.004;8.246;2022-09-30T10:35:28;7.23;;;5.30;;
10701;SDS011;5402;50.004;8.246;2022-09-30T10:37:56;8.80;;;4.03;;
10701;SDS011;5402;50.004;8.246;2022-09-30T10:40:26;6.30;;;4.37;;
10701;SDS011;5402;50.004;8.246;2022-09-30T10:42:55;6.27;;;3.83;;
10701;SDS011;5402;50.004;8.246;2022-09-30T10:45:23;5.63;;;4.30;;
10701;SDS011;5402;50.004;8.246;2022-09-30T10:47:54;5.60;;;4.80;;
10701;SDS011;5402;50.004;8.246;2022-09-30T10:50:22;6.20;;;4.80;;
10701;SDS011;5402;50.004;8.246;2022-09-30T10:52:52;5.37;;;4.00;;
10701;SDS011;5402;50.004;8.246;2022-09-30T10:55:25;6.73;;;4.53;;
10701;SDS011;5402;50.004;8.246;2022-09-30T10:57:57;5.77;;;3.87;;
10701;SDS011;5402;50.004;8.246;2022-09-30T11:00:28;7.03;;;4.30;;
10701;SDS011;5402;50.004;8.246;2022-09-30T11:03:01;8.20;;;4.57;;
10701;SDS011;5402;50.004;8.246;2022-09-30T11:05:33;6.97;;;4.10;;
10701;SDS011;5402;50.004;8.246;2022-09-30T11:08:04;5.23;;;3.47;;
10701;SDS011;5402;50.004;8.246;2022-09-30T11:10:40;8.03;;;4.10;;
10701;SDS011;5402;50.004;8.246;2022-09-30T11:13:15;5.80;;;3.13;;
10701;SDS011;5402;50.004;8.246;2022-09-30T11:15:49;3.67;;;3.10;;
10701;SDS011;5402;50.004;8.246;2022-09-30T11:18:24;4.33;;;3.03;;
10701;SDS011;5402;50.004;8.246;2022-09-30T11:21:00;4.17;;;3.17;;
10701;SDS011;5402;50.004;8.246;2022-09-30T11:23:32;3.53;;;3.10;;
10701;SDS011;5402;50.004;8.246;2022-09-30T11:26:04;4.40;;;3.10;;
10701;SDS011;5402;50.004;8.246;2022-09-30T11:28:41;4.23;;;2.83;;
10701;SDS011;5402;50.004;8.246;2022-09-30T11:31:23;2.97;;;2.70;;
10701;SDS011;5402;50.004;8.246;2022-09-30T11:34:10;4.33;;;2.13;;
10701;SDS011;5402;50.004;8.246;2022-09-30T11:36:52;3.63;;;2.00;;
10701;SDS011;5402;50.004;8.246;2022-09-30T11:39:39;4.50;;;2.10;;
10701;SDS011;5402;50.004;8.246;2022-09-30T11:42:18;4.60;;;2.00;;
10701;SDS011;5402;50.004;8.246;2022-09-30T11:44:52;2.23;;;1.80;;
10701;SDS011;5402;50.004;8.246;2022-09-30T11:47:29;3.90;;;2.30;;
10701;SDS011;5402;50.004;8.246;2022-09-30T11:50:18;3.53;;;2.40;;
10701;SDS011;5402;50.004;8.246;2022-09-30T11:52:54;2.07;;;1.87;;
10701;SDS011;5402;50.004;8.246;2022-09-30T11:55:33;4.00;;;2.47;;
10701;SDS011;5402;50.004;8.246;2022-09-30T11:58:10;4.77;;;3.50;;
10701;SDS011;5402;50.004;8.246;2022-09-30T12:00:40;4.43;;;2.63;;
10701;SDS011;5402;50.004;8.246;2022-09-30T12:03:11;3.83;;;2.77;;
10701;SDS011;5402;50.004;8.246;2022-09-30T12:05:43;3.13;;;2.33;;
10701;SDS011;5402;50.004;8.246;2022-09-30T12:08:13;3.53;;;2.30;;
10701;SDS011;5402;50.004;8.246;2022-09-30T12:10:45;4.93;;;2.67;;
10701;SDS011;5402;50.004;8.246;2022-09-30T12:13:17;4.73;;;2.60;;
10701;SDS011;5402;50.004;8.246;2022-09-30T12:15:49;2.40;;;2.20;;
10701;SDS011;5402;50.004;8.246;2022-09-30T12:18:20;3.17;;;2.40;;
10701;SDS011;5402;50.004;8.246;2022-09-30T12:20:52;3.73;;;2.33;;
10701;SDS011;5402;50.004;8.246;2022-09-30T12:23:25;2.97;;;2.30;;
10701;SDS011;5402;50.004;8.246;2022-09-30T12:25:57;2.83;;;2.40;;
10701;SDS011;5402;50.004;8.246;2022-09-30T12:28:27;3.50;;;2.07;;
10701;SDS011;5402;50.004;8.246;2022-09-30T12:34:18;3.77;;;2.00;;
10701;SDS011;5402;50.004;8.246;2022-09-30T12:37:13;3.30;;;2.10;;
10701;SDS011;5402;50.004;8.246;2022-09-30T12:39:57;3.30;;;2.20;;
10701;SDS011;5402;50.004;8.246;2022-09-30T12:43:00;2.73;;;2.10;;
10701;SDS011;5402;50.004;8.246;2022-09-30T12:46:02;3.20;;;1.83;;
10701;SDS011;5402;50.004;8.246;2022-09-30T12:48:39;2.13;;;1.83;;
10701;SDS011;5402;50.004;8.246;2022-09-30T12:51:10;2.30;;;1.87;;
10701;SDS011;5402;50.004;8.246;2022-09-30T12:53:58;1.97;;;1.77;;
10701;SDS011;5402;50.004;8.246;2022-09-30T12:56:29;2.40;;;1.73;;
10701;SDS011;5402;50.004;8.246;2022-09-30T12:58:58;2.33;;;1.80;;
10701;SDS011;5402;50.004;8.246;2022-09-30T13:01:25;1.57;;;1.47;;
10701;SDS011;5402;50.004;8.246;2022-09-30T13:04:14;2.00;;;1.80;;
10701;SDS011;5402;50.004;8.246;2022-09-30T13:09:58;3.27;;;1.70;;
10701;SDS011;5402;50.004;8.246;2022-09-30T13:13:14;2.47;;;2.03;;
10701;SDS011;5402;50.004;8.246;2022-09-30T13:15:47;4.13;;;1.97;;
10701;SDS011;5402;50.004;8.246;2022-09-30T13:21:20;2.33;;;1.87;;
10701;SDS011;5402;50.004;8.246;2022-09-30T13:23:49;2.60;;;1.90;;
10701;SDS011;5402;50.004;8.246;2022-09-30T13:26:37;3.00;;;2.07;;
10701;SDS011;5402;50.004;8.246;2022-09-30T13:29:34;3.87;;;2.00;;
10701;SDS011;5402;50.004;8.246;2022-09-30T13:32:04;2.20;;;2.00;;
10701;SDS011;5402;50.004;8.246;2022-09-30T13:34:32;2.33;;;1.70;;
10701;SDS011;5402;50.004;8.246;2022-09-30T13:37:27;2.60;;;1.80;;
10701;SDS011;5402;50.004;8.246;2022-09-30T13:40:00;3.43;;;1.80;;
10701;SDS011;5402;50.004;8.246;2022-09-30T13:42:33;2.67;;;1.97;;
10701;SDS011;5402;50.004;8.246;2022-09-30T13:45:08;3.00;;;1.73;;
10701;SDS011;5402;50.004;8.246;2022-09-30T13:47:42;3.47;;;2.03;;
10701;SDS011;5402;50.004;8.246;2022-09-30T13:50:12;1.63;;;1.43;;
10701;SDS011;5402;50.004;8.246;2022-09-30T13:52:41;2.13;;;1.70;;
10701;SDS011;5402;50.004;8.246;2022-09-30T13:55:13;2.13;;;1.60;;
10701;SDS011;5402;50.004;8.246;2022-09-30T13:57:48;2.27;;;1.50;;
10701;SDS011;5402;50.004;8.246;2022-09-30T14:00:24;1.93;;;1.73;;
10701;SDS011;5402;50.004;8.246;2022-09-30T14:03:01;2.27;;;1.60;;
10701;SDS011;5402;50.004;8.246;2022-09-30T14:05:40;2.67;;;1.70;;
10701;SDS011;5402;50.004;8.246;2022-09-30T14:11:25;2.53;;;1.50;;
10701;SDS011;5402;50.004;8.246;2022-09-30T14:14:10;1.47;;;1.33;;
10701;SDS011;5402;50.004;8.246;2022-09-30T14:17:03;2.00;;;1.50;;
10701;SDS011;5402;50.004;8.246;2022-09-30T14:19:52;1.60;;;1.40;;
10701;SDS011;5402;50.004;8.246;2022-09-30T14:22:27;3.17;;;1.50;;
10701;SDS011;5402;50.004;8.246;2022-09-30T14:24:55;1.73;;;1.40;;
10701;SDS011;5402;50.004;8.246;2022-09-30T14:27:25;2.67;;;1.70;;
10701;SDS011;5402;50.004;8.246;2022-09-30T14:30:09;1.73;;;1.60;;
10701;SDS011;5402;50.004;8.246;2022-09-30T14:32:40;1.63;;;1.47;;
10701;SDS011;5402;50.004;8.246;2022-09-30T14:35:12;3.30;;;1.97;;
10701;SDS011;5402;50.004;8.246;2022-09-30T14:37:44;2.43;;;2.00;;
10701;SDS011;5402;50.004;8.246;2022-09-30T14:40:15;2.27;;;1.70;;
10701;SDS011;5402;50.004;8.246;2022-09-30T14:42:44;2.33;;;1.67;;
10701;SDS011;5402;50.004;8.246;2022-09-30T14:45:16;2.07;;;1.60;;
10701;SDS011;5402;50.004;8.246;2022-09-30T14:47:50;2.67;;;1.60;;
10701;SDS011;5402;50.004;8.246;2022-09-30T14:50:20;2.67;;;1.90;;
10701;SDS011;5402;50.004;8.246;2022-09-30T14:52:50;2.03;;;1.60;;
10701;SDS011;5402;50.004;8.246;2022-09-30T14:55:20;1.40;;;1.30;;
10701;SDS011;5402;50.004;8.246;2022-09-30T14:57:51;2.43;;;1.50;;
10701;SDS011;5402;50.004;8.246;2022-09-30T15:00:23;1.80;;;1.40;;
10701;SDS011;5402;50.004;8.246;2022-09-30T15:02:55;2.60;;;1.73;;
10701;SDS011;5402;50.004;8.246;2022-09-30T15:05:23;4.33;;;1.97;;
10701;SDS011;5402;50.004;8.246;2022-09-30T15:07:50;5.07;;;2.00;;
10701;SDS011;5402;50.004;8.246;2022-09-30T15:10:18;1.70;;;1.50;;
10701;SDS011;5402;50.004;8.246;2022-09-30T15:12:48;1.60;;;1.50;;
10701;SDS011;5402;50.004;8.246;2022-09-30T15:15:24;2.17;;;1.70;;
10701;SDS011;5402;50.004;8.246;2022-09-30T15:21:09;1.60;;;1.50;;
10701;SDS011;5402;50.004;8.246;2022-09-30T15:23:38;2.13;;;1.60;;
10701;SDS011;5402;50.004;8.246;2022-09-30T15:26:10;2.53;;;1.50;;
10701;SDS011;5402;50.004;8.246;2022-09-30T15:28:38;2.60;;;1.50;;
10701;SDS011;5402;50.004;8.246;2022-09-30T15:31:06;2.27;;;1.60;;
10701;SDS011;5402;50.004;8.246;2022-09-30T15:33:43;2.20;;;1.47;;
10701;SDS011;5402;50.004;8.246;2022-09-30T15:36:11;2.80;;;1.50;;
10701;SDS011;5402;50.004;8.246;2022-09-30T15:38:44;2.10;;;1.50;;
10701;SDS011;5402;50.004;8.246;2022-09-30T15:41:13;2.60;;;1.80;;
10701;SDS011;5402;50.004;8.246;2022-09-30T15:43:40;2.10;;;1.47;;
10701;SDS011;5402;50.004;8.246;2022-09-30T15:46:24;2.13;;;1.60;;
10701;SDS011;5402;50.004;8.246;2022-09-30T15:48:58;2.47;;;1.70;;
10701;SDS011;5402;50.004;8.246;2022-09-30T15:51:30;1.57;;;1.47;;
10701;SDS011;5402;50.004;8.246;2022-09-30T15:53:59;3.10;;;1.60;;
10701;SDS011;5402;50.004;8.246;2022-09-30T15:56:41;2.97;;;1.50;;
10701;SDS011;5402;50.004;8.246;2022-09-30T15:59:08;1.70;;;1.60;;